Toone, TN (38381)

8:03 PM CDT en Octubre 31, 2014 (GMT -0500)
McKellar-Sipes Regional | Change Station
CLOSE
Current Station
Aeropuerto
Location: Jackson,
Altura: 433 ft
Estaciones meteorológicas cercanas

Alt 433 ft 35.59 °N, 88.92 °W | Updated 10 minutes ago

Despejado
Despejado
42 ° F
Sensación térmica 36 ° F
N
12
Viento Variable Viento desde Norte

Hoy
Alta -- | Baja -- ° F
--% Posibilidad de precipitaciones
Ayer
Alta -- | Baja -- ° F
Precip. -- pul
7:16 AM 6:01 PM
Cuarto creciente, 60% visible
Presión 30.27 pul
Visibilidad 10.0 Millas
Nubes Despejado
Vientos helados 36 ° F
Punto de rocío 24 ° F
Humedad 49%
Precipitaciones 0.16 pul
Espesor de la nieve No disponible.
UV 0 de una escala de 12
Polen .90 de una escala de 12
Calidad del aire No disponible.
Flu Activity No disponible.
METAR KMKL 010053Z AUTO 36010KT 10SM CLR 06/M04 A3027 RMK AO2 SLP251 T00561044

More Conditions Fewer Conditions

Presión 30.27 pul
Visibilidad 10.0 Millas
Nubes Despejado
Vientos helados 36 ° F
Punto de rocío 24 ° F
Humedad 49%
Precipitaciones 0.16 pul
Espesor de la nieve No disponible.
UV 0 de una escala de 12
Polen .90 de una escala de 12
Calidad del aire No disponible.
Flu Activity No disponible.
METAR KMKL 010053Z AUTO 36010KT 10SM CLR 06/M04 A3027 RMK AO2 SLP251 T00561044

More Conditions Fewer Conditions

10-Day Weather Forecast

Almanac

Astronomía

Oct. 31, 2014 Salida Puesta
Hora real
Crepúsculo civil
Crepúsculo náutico
Crepúsculo astronómico
Luna
Horas de luz
Horas de luz
Tomorrow will be .
, % of the Moon is Illuminated

Extremos de hoy

Máximos del estado Bajos del estado

Community

WunderPhotos

Upload Photos

1,766,798 ¡fotos cargadas!

WunderBlogs® & News

Nearby

Calidad del aire

  Calidad del aire Índice AQ Contaminante
Not available.

Grosos de nieve

Estación Profundido Altura

Actividad de terremotos

Ciudad Distance Mag. Tiempo y dato
Magnitud mínima muestra es 2,5.

Temperaturas de aguas costeras

Lugar Temperatura

Estaciones meteorológicas cercanas